sensor_id;sensor_type;location;lat;lon;timestamp;P1;durP1;ratioP1;P2;durP2;ratioP2
63320;SDS011;49449;48.800;9.534;2023-11-21T00:00:17;4.28;;;2.20;;
63320;SDS011;49449;48.800;9.534;2023-11-21T00:02:45;2.47;;;1.80;;
63320;SDS011;49449;48.800;9.534;2023-11-21T00:05:13;2.75;;;1.80;;
63320;SDS011;49449;48.800;9.534;2023-11-21T00:07:42;4.07;;;2.17;;
63320;SDS011;49449;48.800;9.534;2023-11-21T00:10:12;4.57;;;2.33;;
63320;SDS011;49449;48.800;9.534;2023-11-21T00:12:42;6.88;;;2.58;;
63320;SDS011;49449;48.800;9.534;2023-11-21T00:15:10;3.08;;;2.30;;
63320;SDS011;49449;48.800;9.534;2023-11-21T00:17:38;4.78;;;2.88;;
63320;SDS011;49449;48.800;9.534;2023-11-21T00:20:06;5.03;;;3.10;;
63320;SDS011;49449;48.800;9.534;2023-11-21T00:22:34;4.45;;;2.78;;
63320;SDS011;49449;48.800;9.534;2023-11-21T00:25:03;2.47;;;2.10;;
63320;SDS011;49449;48.800;9.534;2023-11-21T00:27:32;2.80;;;2.13;;
63320;SDS011;49449;48.800;9.534;2023-11-21T00:30:01;4.05;;;2.40;;
63320;SDS011;49449;48.800;9.534;2023-11-21T00:32:30;5.78;;;2.67;;
63320;SDS011;49449;48.800;9.534;2023-11-21T00:34:58;3.58;;;2.40;;
63320;SDS011;49449;48.800;9.534;2023-11-21T00:37:26;6.68;;;2.60;;
63320;SDS011;49449;48.800;9.534;2023-11-21T00:39:54;3.67;;;2.90;;
63320;SDS011;49449;48.800;9.534;2023-11-21T00:42:22;3.88;;;2.55;;
63320;SDS011;49449;48.800;9.534;2023-11-21T00:44:51;3.22;;;2.22;;
63320;SDS011;49449;48.800;9.534;2023-11-21T00:47:19;3.25;;;2.45;;
63320;SDS011;49449;48.800;9.534;2023-11-21T00:49:47;4.60;;;2.72;;
63320;SDS011;49449;48.800;9.534;2023-11-21T00:52:15;4.13;;;2.17;;
63320;SDS011;49449;48.800;9.534;2023-11-21T00:54:43;3.28;;;2.15;;
63320;SDS011;49449;48.800;9.534;2023-11-21T00:57:11;2.97;;;2.58;;
63320;SDS011;49449;48.800;9.534;2023-11-21T00:59:39;4.38;;;2.38;;
63320;SDS011;49449;48.800;9.534;2023-11-21T01:02:08;3.30;;;2.38;;
63320;SDS011;49449;48.800;9.534;2023-11-21T01:04:36;5.10;;;2.47;;
63320;SDS011;49449;48.800;9.534;2023-11-21T01:07:05;3.22;;;2.13;;
63320;SDS011;49449;48.800;9.534;2023-11-21T01:09:32;3.65;;;2.83;;
63320;SDS011;49449;48.800;9.534;2023-11-21T01:12:00;3.63;;;2.30;;
63320;SDS011;49449;48.800;9.534;2023-11-21T01:14:28;4.43;;;2.38;;
63320;SDS011;49449;48.800;9.534;2023-11-21T01:16:56;4.88;;;2.67;;
63320;SDS011;49449;48.800;9.534;2023-11-21T01:19:25;4.72;;;2.28;;
63320;SDS011;49449;48.800;9.534;2023-11-21T01:21:53;3.95;;;3.00;;
63320;SDS011;49449;48.800;9.534;2023-11-21T01:24:21;3.13;;;2.20;;
63320;SDS011;49449;48.800;9.534;2023-11-21T01:26:48;2.92;;;2.50;;
63320;SDS011;49449;48.800;9.534;2023-11-21T01:29:16;3.58;;;2.67;;
63320;SDS011;49449;48.800;9.534;2023-11-21T01:31:44;3.83;;;2.22;;
63320;SDS011;49449;48.800;9.534;2023-11-21T01:34:12;3.63;;;1.63;;
63320;SDS011;49449;48.800;9.534;2023-11-21T01:36:42;2.72;;;2.08;;
63320;SDS011;49449;48.800;9.534;2023-11-21T01:39:09;4.55;;;2.22;;
63320;SDS011;49449;48.800;9.534;2023-11-21T01:41:41;2.63;;;2.40;;
63320;SDS011;49449;48.800;9.534;2023-11-21T01:44:11;5.13;;;2.13;;
63320;SDS011;49449;48.800;9.534;2023-11-21T01:46:39;5.03;;;2.83;;
63320;SDS011;49449;48.800;9.534;2023-11-21T01:49:08;2.53;;;1.58;;
63320;SDS011;49449;48.800;9.534;2023-11-21T01:51:39;3.85;;;2.00;;
63320;SDS011;49449;48.800;9.534;2023-11-21T01:54:10;3.00;;;2.13;;
63320;SDS011;49449;48.800;9.534;2023-11-21T01:56:40;2.10;;;1.40;;
63320;SDS011;49449;48.800;9.534;2023-11-21T01:59:08;2.17;;;1.27;;
63320;SDS011;49449;48.800;9.534;2023-11-21T02:01:37;4.82;;;2.28;;
63320;SDS011;49449;48.800;9.534;2023-11-21T02:04:05;1.75;;;1.65;;
63320;SDS011;49449;48.800;9.534;2023-11-21T02:06:34;2.67;;;1.60;;
63320;SDS011;49449;48.800;9.534;2023-11-21T02:09:04;3.15;;;1.60;;
63320;SDS011;49449;48.800;9.534;2023-11-21T02:11:32;2.28;;;1.50;;
63320;SDS011;49449;48.800;9.534;2023-11-21T02:14:01;3.35;;;1.52;;
63320;SDS011;49449;48.800;9.534;2023-11-21T02:16:29;2.58;;;1.30;;
63320;SDS011;49449;48.800;9.534;2023-11-21T02:19:00;2.92;;;1.70;;
63320;SDS011;49449;48.800;9.534;2023-11-21T02:21:29;2.22;;;1.58;;
63320;SDS011;49449;48.800;9.534;2023-11-21T02:23:59;1.92;;;1.40;;
63320;SDS011;49449;48.800;9.534;2023-11-21T02:26:27;2.92;;;1.30;;
63320;SDS011;49449;48.800;9.534;2023-11-21T02:28:55;5.30;;;1.83;;
63320;SDS011;49449;48.800;9.534;2023-11-21T02:31:24;4.13;;;2.10;;
63320;SDS011;49449;48.800;9.534;2023-11-21T02:33:53;6.68;;;2.40;;
63320;SDS011;49449;48.800;9.534;2023-11-21T02:36:21;3.10;;;2.05;;
63320;SDS011;49449;48.800;9.534;2023-11-21T02:38:49;4.03;;;2.00;;
63320;SDS011;49449;48.800;9.534;2023-11-21T02:41:18;3.03;;;1.80;;
63320;SDS011;49449;48.800;9.534;2023-11-21T02:43:46;2.33;;;1.58;;
63320;SDS011;49449;48.800;9.534;2023-11-21T02:46:14;3.70;;;1.85;;
63320;SDS011;49449;48.800;9.534;2023-11-21T02:48:42;3.75;;;1.75;;
63320;SDS011;49449;48.800;9.534;2023-11-21T02:51:10;3.38;;;1.80;;
63320;SDS011;49449;48.800;9.534;2023-11-21T02:53:37;2.95;;;2.05;;
63320;SDS011;49449;48.800;9.534;2023-11-21T02:56:06;3.03;;;1.65;;
63320;SDS011;49449;48.800;9.534;2023-11-21T02:58:36;3.53;;;1.88;;
63320;SDS011;49449;48.800;9.534;2023-11-21T03:01:03;2.80;;;1.48;;
63320;SDS011;49449;48.800;9.534;2023-11-21T03:03:32;2.15;;;1.50;;
63320;SDS011;49449;48.800;9.534;2023-11-21T03:06:00;3.10;;;1.70;;
63320;SDS011;49449;48.800;9.534;2023-11-21T03:08:27;1.73;;;1.58;;
63320;SDS011;49449;48.800;9.534;2023-11-21T03:10:55;2.33;;;2.13;;
63320;SDS011;49449;48.800;9.534;2023-11-21T03:13:23;2.50;;;1.40;;
63320;SDS011;49449;48.800;9.534;2023-11-21T03:15:52;3.03;;;1.73;;
63320;SDS011;49449;48.800;9.534;2023-11-21T03:18:20;2.15;;;1.38;;
63320;SDS011;49449;48.800;9.534;2023-11-21T03:20:50;2.28;;;2.08;;
63320;SDS011;49449;48.800;9.534;2023-11-21T03:23:19;3.45;;;1.65;;
63320;SDS011;49449;48.800;9.534;2023-11-21T03:25:46;2.58;;;1.58;;
63320;SDS011;49449;48.800;9.534;2023-11-21T03:28:15;3.63;;;1.70;;
63320;SDS011;49449;48.800;9.534;2023-11-21T03:30:43;2.20;;;1.55;;
63320;SDS011;49449;48.800;9.534;2023-11-21T03:33:12;1.40;;;1.27;;
63320;SDS011;49449;48.800;9.534;2023-11-21T03:35:40;1.50;;;1.25;;
63320;SDS011;49449;48.800;9.534;2023-11-21T03:38:08;1.38;;;1.27;;
63320;SDS011;49449;48.800;9.534;2023-11-21T03:40:38;2.40;;;2.20;;
63320;SDS011;49449;48.800;9.534;2023-11-21T03:43:06;2.67;;;1.58;;
63320;SDS011;49449;48.800;9.534;2023-11-21T03:45:34;3.33;;;2.22;;
63320;SDS011;49449;48.800;9.534;2023-11-21T03:48:02;2.38;;;1.50;;
63320;SDS011;49449;48.800;9.534;2023-11-21T03:50:31;2.22;;;1.92;;
63320;SDS011;49449;48.800;9.534;2023-11-21T03:52:59;1.48;;;1.42;;
63320;SDS011;49449;48.800;9.534;2023-11-21T03:55:27;1.55;;;1.30;;
63320;SDS011;49449;48.800;9.534;2023-11-21T03:57:55;2.67;;;1.52;;
63320;SDS011;49449;48.800;9.534;2023-11-21T04:00:23;2.13;;;1.70;;
63320;SDS011;49449;48.800;9.534;2023-11-21T04:02:53;1.63;;;1.52;;
63320;SDS011;49449;48.800;9.534;2023-11-21T04:05:21;1.88;;;1.20;;
63320;SDS011;49449;48.800;9.534;2023-11-21T04:07:50;2.53;;;1.20;;
63320;SDS011;49449;48.800;9.534;2023-11-21T04:10:18;2.30;;;1.52;;
63320;SDS011;49449;48.800;9.534;2023-11-21T04:12:46;4.32;;;1.55;;
63320;SDS011;49449;48.800;9.534;2023-11-21T04:15:14;1.95;;;1.85;;
63320;SDS011;49449;48.800;9.534;2023-11-21T04:17:43;1.38;;;1.23;;
63320;SDS011;49449;48.800;9.534;2023-11-21T04:20:11;3.20;;;1.92;;
63320;SDS011;49449;48.800;9.534;2023-11-21T04:22:39;2.33;;;1.88;;
63320;SDS011;49449;48.800;9.534;2023-11-21T04:25:11;1.65;;;1.55;;
63320;SDS011;49449;48.800;9.534;2023-11-21T04:27:41;1.80;;;1.08;;
63320;SDS011;49449;48.800;9.534;2023-11-21T04:30:10;1.30;;;1.23;;
63320;SDS011;49449;48.800;9.534;2023-11-21T04:32:38;2.22;;;1.48;;
63320;SDS011;49449;48.800;9.534;2023-11-21T04:35:07;2.60;;;1.58;;
63320;SDS011;49449;48.800;9.534;2023-11-21T04:37:35;1.48;;;1.38;;
63320;SDS011;49449;48.800;9.534;2023-11-21T04:40:04;2.10;;;1.40;;
63320;SDS011;49449;48.800;9.534;2023-11-21T04:42:35;2.08;;;1.98;;
63320;SDS011;49449;48.800;9.534;2023-11-21T04:45:03;2.17;;;1.83;;
63320;SDS011;49449;48.800;9.534;2023-11-21T04:47:35;2.15;;;1.25;;
63320;SDS011;49449;48.800;9.534;2023-11-21T04:50:03;2.35;;;1.60;;
63320;SDS011;49449;48.800;9.534;2023-11-21T04:52:32;1.33;;;1.23;;
63320;SDS011;49449;48.800;9.534;2023-11-21T04:55:00;1.92;;;1.50;;
63320;SDS011;49449;48.800;9.534;2023-11-21T04:57:29;1.70;;;1.60;;
63320;SDS011;49449;48.800;9.534;2023-11-21T04:59:58;1.45;;;1.35;;
63320;SDS011;49449;48.800;9.534;2023-11-21T05:02:26;3.92;;;1.67;;
63320;SDS011;49449;48.800;9.534;2023-11-21T05:04:55;3.13;;;1.35;;
63320;SDS011;49449;48.800;9.534;2023-11-21T05:07:23;1.67;;;1.58;;
63320;SDS011;49449;48.800;9.534;2023-11-21T05:09:56;2.30;;;1.42;;
63320;SDS011;49449;48.800;9.534;2023-11-21T05:12:24;2.60;;;1.45;;
63320;SDS011;49449;48.800;9.534;2023-11-21T05:14:52;1.67;;;1.20;;
63320;SDS011;49449;48.800;9.534;2023-11-21T05:17:21;1.40;;;1.27;;
63320;SDS011;49449;48.800;9.534;2023-11-21T05:19:49;1.83;;;1.02;;
63320;SDS011;49449;48.800;9.534;2023-11-21T05:22:17;3.60;;;1.70;;
63320;SDS011;49449;48.800;9.534;2023-11-21T05:24:46;1.35;;;1.35;;
63320;SDS011;49449;48.800;9.534;2023-11-21T05:27:14;1.67;;;1.63;;
63320;SDS011;49449;48.800;9.534;2023-11-21T05:29:42;1.08;;;1.00;;
63320;SDS011;49449;48.800;9.534;2023-11-21T05:32:10;2.35;;;1.60;;
63320;SDS011;49449;48.800;9.534;2023-11-21T05:34:39;1.80;;;1.67;;
63320;SDS011;49449;48.800;9.534;2023-11-21T05:37:07;1.65;;;1.48;;
63320;SDS011;49449;48.800;9.534;2023-11-21T05:39:35;2.25;;;1.42;;
63320;SDS011;49449;48.800;9.534;2023-11-21T05:42:03;2.70;;;1.80;;
63320;SDS011;49449;48.800;9.534;2023-11-21T05:44:31;1.60;;;1.38;;
63320;SDS011;49449;48.800;9.534;2023-11-21T05:46:59;2.70;;;1.58;;
63320;SDS011;49449;48.800;9.534;2023-11-21T05:49:27;2.00;;;1.83;;
63320;SDS011;49449;48.800;9.534;2023-11-21T05:51:57;1.60;;;1.40;;
63320;SDS011;49449;48.800;9.534;2023-11-21T05:54:26;1.20;;;1.20;;
63320;SDS011;49449;48.800;9.534;2023-11-21T05:56:54;1.77;;;1.52;;
63320;SDS011;49449;48.800;9.534;2023-11-21T05:59:22;1.85;;;1.23;;
63320;SDS011;49449;48.800;9.534;2023-11-21T06:01:50;2.67;;;1.98;;
63320;SDS011;49449;48.800;9.534;2023-11-21T06:04:18;4.78;;;2.60;;
63320;SDS011;49449;48.800;9.534;2023-11-21T06:06:50;5.53;;;2.80;;
63320;SDS011;49449;48.800;9.534;2023-11-21T06:09:20;2.90;;;1.70;;
63320;SDS011;49449;48.800;9.534;2023-11-21T06:11:48;1.77;;;1.67;;
63320;SDS011;49449;48.800;9.534;2023-11-21T06:14:16;2.85;;;2.58;;
63320;SDS011;49449;48.800;9.534;2023-11-21T06:16:44;2.58;;;1.73;;
63320;SDS011;49449;48.800;9.534;2023-11-21T06:19:12;1.80;;;1.63;;
63320;SDS011;49449;48.800;9.534;2023-11-21T06:21:41;2.05;;;1.75;;
63320;SDS011;49449;48.800;9.534;2023-11-21T06:24:13;1.88;;;1.77;;
63320;SDS011;49449;48.800;9.534;2023-11-21T06:26:42;1.80;;;1.70;;
63320;SDS011;49449;48.800;9.534;2023-11-21T06:29:11;2.35;;;1.20;;
63320;SDS011;49449;48.800;9.534;2023-11-21T06:31:39;4.95;;;1.83;;
63320;SDS011;49449;48.800;9.534;2023-11-21T06:34:07;1.60;;;1.50;;
63320;SDS011;49449;48.800;9.534;2023-11-21T06:36:36;2.50;;;1.63;;
63320;SDS011;49449;48.800;9.534;2023-11-21T06:39:03;2.08;;;1.48;;
63320;SDS011;49449;48.800;9.534;2023-11-21T06:41:35;1.63;;;1.52;;
63320;SDS011;49449;48.800;9.534;2023-11-21T06:44:06;3.70;;;2.08;;
63320;SDS011;49449;48.800;9.534;2023-11-21T06:46:35;4.22;;;3.70;;
63320;SDS011;49449;48.800;9.534;2023-11-21T06:49:04;2.92;;;1.70;;
63320;SDS011;49449;48.800;9.534;2023-11-21T06:51:32;2.50;;;2.25;;
63320;SDS011;49449;48.800;9.534;2023-11-21T06:54:00;3.13;;;2.78;;
63320;SDS011;49449;48.800;9.534;2023-11-21T06:56:28;5.35;;;2.95;;
63320;SDS011;49449;48.800;9.534;2023-11-21T06:58:56;2.60;;;2.30;;
63320;SDS011;49449;48.800;9.534;2023-11-21T07:01:25;1.92;;;1.73;;
63320;SDS011;49449;48.800;9.534;2023-11-21T07:03:53;2.20;;;1.77;;
63320;SDS011;49449;48.800;9.534;2023-11-21T07:06:21;2.42;;;2.22;;
63320;SDS011;49449;48.800;9.534;2023-11-21T07:08:49;2.20;;;1.85;;
63320;SDS011;49449;48.800;9.534;2023-11-21T07:11:16;3.05;;;2.13;;
63320;SDS011;49449;48.800;9.534;2023-11-21T07:13:44;2.72;;;1.80;;
63320;SDS011;49449;48.800;9.534;2023-11-21T07:16:12;1.90;;;1.80;;
63320;SDS011;49449;48.800;9.534;2023-11-21T07:18:42;2.10;;;1.80;;
63320;SDS011;49449;48.800;9.534;2023-11-21T07:21:10;2.58;;;2.17;;
63320;SDS011;49449;48.800;9.534;2023-11-21T07:23:38;2.83;;;2.20;;
63320;SDS011;49449;48.800;9.534;2023-11-21T07:26:07;2.45;;;2.25;;
63320;SDS011;49449;48.800;9.534;2023-11-21T07:28:37;4.25;;;2.28;;
63320;SDS011;49449;48.800;9.534;2023-11-21T07:31:05;3.22;;;2.92;;
63320;SDS011;49449;48.800;9.534;2023-11-21T07:33:32;2.58;;;2.35;;
63320;SDS011;49449;48.800;9.534;2023-11-21T07:36:02;2.15;;;1.95;;
63320;SDS011;49449;48.800;9.534;2023-11-21T07:38:30;2.42;;;2.17;;
63320;SDS011;49449;48.800;9.534;2023-11-21T07:40:59;2.20;;;2.00;;
63320;SDS011;49449;48.800;9.534;2023-11-21T07:43:28;3.28;;;2.38;;
63320;SDS011;49449;48.800;9.534;2023-11-21T07:46:01;3.22;;;2.50;;
63320;SDS011;49449;48.800;9.534;2023-11-21T07:48:30;2.88;;;1.95;;
63320;SDS011;49449;48.800;9.534;2023-11-21T07:50:57;2.78;;;2.10;;
63320;SDS011;49449;48.800;9.534;2023-11-21T07:53:27;2.15;;;1.63;;
63320;SDS011;49449;48.800;9.534;2023-11-21T07:55:56;2.00;;;1.90;;
63320;SDS011;49449;48.800;9.534;2023-11-21T07:58:24;1.75;;;1.65;;
63320;SDS011;49449;48.800;9.534;2023-11-21T08:00:52;1.95;;;1.70;;
63320;SDS011;49449;48.800;9.534;2023-11-21T08:03:19;1.67;;;1.58;;
63320;SDS011;49449;48.800;9.534;2023-11-21T08:05:48;1.90;;;1.80;;
63320;SDS011;49449;48.800;9.534;2023-11-21T08:08:15;1.92;;;1.70;;
63320;SDS011;49449;48.800;9.534;2023-11-21T08:10:46;2.13;;;1.88;;
63320;SDS011;49449;48.800;9.534;2023-11-21T08:13:22;2.38;;;2.00;;
63320;SDS011;49449;48.800;9.534;2023-11-21T08:15:53;2.70;;;2.50;;
63320;SDS011;49449;48.800;9.534;2023-11-21T08:18:22;2.58;;;2.38;;
63320;SDS011;49449;48.800;9.534;2023-11-21T08:20:51;3.75;;;2.85;;
63320;SDS011;49449;48.800;9.534;2023-11-21T08:23:18;2.38;;;2.17;;
63320;SDS011;49449;48.800;9.534;2023-11-21T08:25:47;2.80;;;2.17;;
63320;SDS011;49449;48.800;9.534;2023-11-21T08:28:15;2.33;;;2.05;;
63320;SDS011;49449;48.800;9.534;2023-11-21T08:30:43;2.50;;;2.03;;
63320;SDS011;49449;48.800;9.534;2023-11-21T08:33:11;3.17;;;2.88;;
63320;SDS011;49449;48.800;9.534;2023-11-21T08:35:39;3.08;;;2.45;;
63320;SDS011;49449;48.800;9.534;2023-11-21T08:38:07;3.47;;;2.80;;
63320;SDS011;49449;48.800;9.534;2023-11-21T08:40:36;2.72;;;2.38;;
63320;SDS011;49449;48.800;9.534;2023-11-21T08:43:05;2.90;;;2.40;;
63320;SDS011;49449;48.800;9.534;2023-11-21T08:45:33;2.45;;;2.30;;
63320;SDS011;49449;48.800;9.534;2023-11-21T08:48:01;3.00;;;2.70;;
63320;SDS011;49449;48.800;9.534;2023-11-21T08:50:29;2.30;;;2.20;;
63320;SDS011;49449;48.800;9.534;2023-11-21T08:52:57;2.60;;;1.70;;
63320;SDS011;49449;48.800;9.534;2023-11-21T08:55:24;2.35;;;2.15;;
63320;SDS011;49449;48.800;9.534;2023-11-21T08:57:52;2.40;;;2.20;;
63320;SDS011;49449;48.800;9.534;2023-11-21T09:00:21;1.80;;;1.70;;
63320;SDS011;49449;48.800;9.534;2023-11-21T09:02:50;3.28;;;1.80;;
63320;SDS011;49449;48.800;9.534;2023-11-21T09:05:18;2.55;;;1.88;;
63320;SDS011;49449;48.800;9.534;2023-11-21T09:07:47;3.63;;;1.70;;
63320;SDS011;49449;48.800;9.534;2023-11-21T09:10:15;2.58;;;1.30;;
63320;SDS011;49449;48.800;9.534;2023-11-21T09:12:43;1.58;;;1.48;;
63320;SDS011;49449;48.800;9.534;2023-11-21T09:15:11;1.55;;;1.45;;
63320;SDS011;49449;48.800;9.534;2023-11-21T09:17:40;2.00;;;1.65;;
63320;SDS011;49449;48.800;9.534;2023-11-21T09:20:09;1.92;;;1.50;;
63320;SDS011;49449;48.800;9.534;2023-11-21T09:22:38;2.00;;;1.90;;
63320;SDS011;49449;48.800;9.534;2023-11-21T09:25:06;2.72;;;1.38;;
63320;SDS011;49449;48.800;9.534;2023-11-21T09:27:34;1.52;;;1.15;;
63320;SDS011;49449;48.800;9.534;2023-11-21T09:30:03;2.33;;;1.90;;
63320;SDS011;49449;48.800;9.534;2023-11-21T09:32:31;1.27;;;1.17;;
63320;SDS011;49449;48.800;9.534;2023-11-21T09:35:01;1.75;;;1.52;;
63320;SDS011;49449;48.800;9.534;2023-11-21T09:37:29;1.40;;;1.30;;
63320;SDS011;49449;48.800;9.534;2023-11-21T09:39:57;2.15;;;1.60;;
63320;SDS011;49449;48.800;9.534;2023-11-21T09:42:25;2.33;;;2.17;;
63320;SDS011;49449;48.800;9.534;2023-11-21T09:45:01;1.90;;;1.80;;
63320;SDS011;49449;48.800;9.534;2023-11-21T09:47:33;2.05;;;1.40;;
63320;SDS011;49449;48.800;9.534;2023-11-21T09:50:07;1.58;;;1.35;;
63320;SDS011;49449;48.800;9.534;2023-11-21T09:52:38;1.63;;;1.20;;
63320;SDS011;49449;48.800;9.534;2023-11-21T09:55:14;2.83;;;1.80;;
63320;SDS011;49449;48.800;9.534;2023-11-21T09:57:47;2.03;;;1.70;;
63320;SDS011;49449;48.800;9.534;2023-11-21T10:00:16;2.65;;;1.40;;
63320;SDS011;49449;48.800;9.534;2023-11-21T10:02:49;1.63;;;1.52;;
63320;SDS011;49449;48.800;9.534;2023-11-21T10:05:20;0.93;;;0.93;;
63320;SDS011;49449;48.800;9.534;2023-11-21T10:07:50;1.20;;;1.20;;
63320;SDS011;49449;48.800;9.534;2023-11-21T10:10:19;1.63;;;1.00;;
63320;SDS011;49449;48.800;9.534;2023-11-21T10:12:48;1.75;;;1.10;;
63320;SDS011;49449;48.800;9.534;2023-11-21T10:17:49;1.30;;;1.20;;
63320;SDS011;49449;48.800;9.534;2023-11-21T10:20:20;1.65;;;1.50;;
63320;SDS011;49449;48.800;9.534;2023-11-21T10:25:18;0.95;;;0.95;;
63320;SDS011;49449;48.800;9.534;2023-11-21T10:27:47;0.80;;;0.80;;
63320;SDS011;49449;48.800;9.534;2023-11-21T10:30:17;1.30;;;0.68;;
63320;SDS011;49449;48.800;9.534;2023-11-21T10:32:45;0.93;;;0.93;;
63320;SDS011;49449;48.800;9.534;2023-11-21T10:35:14;1.65;;;1.00;;
63320;SDS011;49449;48.800;9.534;2023-11-21T10:37:43;1.00;;;0.90;;
63320;SDS011;49449;48.800;9.534;2023-11-21T10:40:11;1.30;;;1.20;;
63320;SDS011;49449;48.800;9.534;2023-11-21T10:42:39;1.40;;;1.40;;
63320;SDS011;49449;48.800;9.534;2023-11-21T10:45:08;1.27;;;1.05;;
63320;SDS011;49449;48.800;9.534;2023-11-21T10:47:39;1.48;;;0.80;;
63320;SDS011;49449;48.800;9.534;2023-11-21T10:50:08;0.82;;;0.82;;
63320;SDS011;49449;48.800;9.534;2023-11-21T10:52:37;1.00;;;0.90;;
63320;SDS011;49449;48.800;9.534;2023-11-21T10:55:20;1.10;;;0.93;;
63320;SDS011;49449;48.800;9.534;2023-11-21T10:57:51;1.15;;;1.10;;
63320;SDS011;49449;48.800;9.534;2023-11-21T11:00:20;0.80;;;0.80;;
63320;SDS011;49449;48.800;9.534;2023-11-21T11:02:51;1.75;;;1.30;;
63320;SDS011;49449;48.800;9.534;2023-11-21T11:05:21;1.55;;;0.82;;
63320;SDS011;49449;48.800;9.534;2023-11-21T11:07:50;1.13;;;1.02;;
63320;SDS011;49449;48.800;9.534;2023-11-21T11:10:22;1.08;;;1.08;;
63320;SDS011;49449;48.800;9.534;2023-11-21T11:12:53;1.25;;;1.25;;
63320;SDS011;49449;48.800;9.534;2023-11-21T11:15:21;1.00;;;0.90;;
63320;SDS011;49449;48.800;9.534;2023-11-21T11:17:50;1.15;;;1.08;;
63320;SDS011;49449;48.800;9.534;2023-11-21T11:20:23;1.23;;;1.13;;
63320;SDS011;49449;48.800;9.534;2023-11-21T11:22:56;1.42;;;1.17;;
63320;SDS011;49449;48.800;9.534;2023-11-21T11:25:57;1.15;;;1.05;;
63320;SDS011;49449;48.800;9.534;2023-11-21T11:28:35;1.58;;;1.10;;
63320;SDS011;49449;48.800;9.534;2023-11-21T11:31:13;1.92;;;1.17;;
63320;SDS011;49449;48.800;9.534;2023-11-21T11:33:52;1.30;;;1.20;;
63320;SDS011;49449;48.800;9.534;2023-11-21T11:36:25;1.80;;;1.60;;
63320;SDS011;49449;48.800;9.534;2023-11-21T11:38:56;2.35;;;1.85;;
63320;SDS011;49449;48.800;9.534;2023-11-21T11:41:26;2.40;;;2.20;;
63320;SDS011;49449;48.800;9.534;2023-11-21T11:43:56;3.13;;;2.00;;
63320;SDS011;49449;48.800;9.534;2023-11-21T11:49:19;1.48;;;1.38;;
63320;SDS011;49449;48.800;9.534;2023-11-21T11:54:52;3.72;;;2.00;;
63320;SDS011;49449;48.800;9.534;2023-11-21T11:57:24;1.98;;;1.80;;
63320;SDS011;49449;48.800;9.534;2023-11-21T12:02:47;1.70;;;1.60;;
63320;SDS011;49449;48.800;9.534;2023-11-21T12:05:15;1.85;;;1.55;;
63320;SDS011;49449;48.800;9.534;2023-11-21T12:07:46;1.95;;;1.85;;
63320;SDS011;49449;48.800;9.534;2023-11-21T12:10:16;1.60;;;1.50;;
63320;SDS011;49449;48.800;9.534;2023-11-21T12:12:46;2.22;;;2.05;;
63320;SDS011;49449;48.800;9.534;2023-11-21T12:15:15;1.77;;;1.67;;
63320;SDS011;49449;48.800;9.534;2023-11-21T12:17:44;2.65;;;2.22;;
63320;SDS011;49449;48.800;9.534;2023-11-21T12:20:13;1.45;;;1.35;;
63320;SDS011;49449;48.800;9.534;2023-11-21T12:22:44;1.33;;;1.30;;
63320;SDS011;49449;48.800;9.534;2023-11-21T12:25:15;1.70;;;1.60;;
63320;SDS011;49449;48.800;9.534;2023-11-21T12:27:46;1.35;;;1.20;;
63320;SDS011;49449;48.800;9.534;2023-11-21T12:30:16;1.52;;;1.10;;
63320;SDS011;49449;48.800;9.534;2023-11-21T12:32:47;1.15;;;1.00;;
63320;SDS011;49449;48.800;9.534;2023-11-21T12:35:17;1.02;;;1.02;;
63320;SDS011;49449;48.800;9.534;2023-11-21T12:37:47;1.63;;;1.63;;
63320;SDS011;49449;48.800;9.534;2023-11-21T12:40:16;0.93;;;0.93;;
63320;SDS011;49449;48.800;9.534;2023-11-21T12:42:45;0.90;;;0.90;;
63320;SDS011;49449;48.800;9.534;2023-11-21T12:45:20;1.65;;;1.65;;
63320;SDS011;49449;48.800;9.534;2023-11-21T12:47:49;1.05;;;1.02;;
63320;SDS011;49449;48.800;9.534;2023-11-21T12:50:18;1.30;;;1.20;;
63320;SDS011;49449;48.800;9.534;2023-11-21T12:52:50;0.90;;;0.90;;
63320;SDS011;49449;48.800;9.534;2023-11-21T12:55:20;0.85;;;0.85;;
63320;SDS011;49449;48.800;9.534;2023-11-21T12:57:50;1.45;;;1.17;;
63320;SDS011;49449;48.800;9.534;2023-11-21T13:00:27;1.75;;;1.38;;
63320;SDS011;49449;48.800;9.534;2023-11-21T13:02:59;1.05;;;1.05;;
63320;SDS011;49449;48.800;9.534;2023-11-21T13:05:27;1.90;;;1.80;;
63320;SDS011;49449;48.800;9.534;2023-11-21T13:07:56;2.67;;;2.03;;
63320;SDS011;49449;48.800;9.534;2023-11-21T13:10:26;2.20;;;2.10;;
63320;SDS011;49449;48.800;9.534;2023-11-21T13:12:58;1.90;;;1.80;;
63320;SDS011;49449;48.800;9.534;2023-11-21T13:15:27;1.55;;;1.45;;
63320;SDS011;49449;48.800;9.534;2023-11-21T13:17:57;1.38;;;1.27;;
63320;SDS011;49449;48.800;9.534;2023-11-21T13:20:25;1.52;;;1.42;;
63320;SDS011;49449;48.800;9.534;2023-11-21T13:22:54;1.48;;;1.38;;
63320;SDS011;49449;48.800;9.534;2023-11-21T13:25:25;1.85;;;1.67;;
63320;SDS011;49449;48.800;9.534;2023-11-21T13:27:54;1.55;;;1.45;;
63320;SDS011;49449;48.800;9.534;2023-11-21T13:30:23;2.45;;;1.55;;
63320;SDS011;49449;48.800;9.534;2023-11-21T13:32:52;1.75;;;1.50;;
63320;SDS011;49449;48.800;9.534;2023-11-21T13:35:23;1.60;;;1.60;;
63320;SDS011;49449;48.800;9.534;2023-11-21T13:37:57;2.65;;;1.60;;
63320;SDS011;49449;48.800;9.534;2023-11-21T13:40:32;1.25;;;1.25;;
63320;SDS011;49449;48.800;9.534;2023-11-21T13:43:09;1.67;;;1.58;;
63320;SDS011;49449;48.800;9.534;2023-11-21T13:45:38;1.23;;;1.17;;
63320;SDS011;49449;48.800;9.534;2023-11-21T13:48:09;1.60;;;1.50;;
63320;SDS011;49449;48.800;9.534;2023-11-21T13:50:40;1.45;;;1.35;;
63320;SDS011;49449;48.800;9.534;2023-11-21T13:53:14;1.08;;;1.08;;
63320;SDS011;49449;48.800;9.534;2023-11-21T13:55:49;1.60;;;1.48;;
63320;SDS011;49449;48.800;9.534;2023-11-21T13:58:17;2.05;;;1.95;;
63320;SDS011;49449;48.800;9.534;2023-11-21T14:00:50;2.00;;;1.90;;
63320;SDS011;49449;48.800;9.534;2023-11-21T14:03:23;1.50;;;1.40;;
63320;SDS011;49449;48.800;9.534;2023-11-21T14:05:58;4.57;;;2.17;;
63320;SDS011;49449;48.800;9.534;2023-11-21T14:08:34;2.20;;;2.10;;
63320;SDS011;49449;48.800;9.534;2023-11-21T14:11:01;1.77;;;1.67;;
63320;SDS011;49449;48.800;9.534;2023-11-21T14:13:37;1.52;;;1.38;;
63320;SDS011;49449;48.800;9.534;2023-11-21T14:16:13;1.75;;;1.65;;
63320;SDS011;49449;48.800;9.534;2023-11-21T14:18:43;1.60;;;1.50;;
63320;SDS011;49449;48.800;9.534;2023-11-21T14:21:19;1.70;;;1.60;;
63320;SDS011;49449;48.800;9.534;2023-11-21T14:23:47;15.05;;;7.68;;
63320;SDS011;49449;48.800;9.534;2023-11-21T14:26:15;5.03;;;3.42;;
63320;SDS011;49449;48.800;9.534;2023-11-21T14:28:44;2.05;;;1.85;;
63320;SDS011;49449;48.800;9.534;2023-11-21T14:31:15;1.60;;;1.50;;
63320;SDS011;49449;48.800;9.534;2023-11-21T14:33:43;1.55;;;1.45;;
63320;SDS011;49449;48.800;9.534;2023-11-21T14:36:11;1.77;;;1.58;;
63320;SDS011;49449;48.800;9.534;2023-11-21T14:38:39;1.98;;;1.88;;
63320;SDS011;49449;48.800;9.534;2023-11-21T14:41:07;4.88;;;2.88;;
63320;SDS011;49449;48.800;9.534;2023-11-21T14:43:37;4.75;;;4.05;;
63320;SDS011;49449;48.800;9.534;2023-11-21T14:46:05;5.00;;;3.67;;
63320;SDS011;49449;48.800;9.534;2023-11-21T14:48:37;5.55;;;3.35;;
63320;SDS011;49449;48.800;9.534;2023-11-21T14:51:08;7.72;;;4.93;;
63320;SDS011;49449;48.800;9.534;2023-11-21T14:53:57;4.63;;;3.30;;
63320;SDS011;49449;48.800;9.534;2023-11-21T14:56:32;2.78;;;2.53;;
63320;SDS011;49449;48.800;9.534;2023-11-21T14:59:01;2.60;;;2.40;;
63320;SDS011;49449;48.800;9.534;2023-11-21T15:01:35;1.58;;;1.50;;
63320;SDS011;49449;48.800;9.534;2023-11-21T15:04:12;1.90;;;1.80;;
63320;SDS011;49449;48.800;9.534;2023-11-21T15:06:53;1.67;;;1.58;;
63320;SDS011;49449;48.800;9.534;2023-11-21T15:09:22;1.73;;;1.63;;
63320;SDS011;49449;48.800;9.534;2023-11-21T15:12:05;2.33;;;2.13;;
63320;SDS011;49449;48.800;9.534;2023-11-21T15:14:44;1.98;;;1.88;;